sensor_id;sensor_type;location;lat;lon;timestamp;temperature;humidity
4604;DHT22;2314;48.272;11.562;2023-10-19T00:00:47;6.80;99.90
4604;DHT22;2314;48.272;11.562;2023-10-19T00:03:16;6.70;99.90
4604;DHT22;2314;48.272;11.562;2023-10-19T00:05:44;6.70;99.90
4604;DHT22;2314;48.272;11.562;2023-10-19T00:08:13;6.70;99.90
4604;DHT22;2314;48.272;11.562;2023-10-19T00:10:41;6.70;99.90
4604;DHT22;2314;48.272;11.562;2023-10-19T00:13:10;6.70;99.90
4604;DHT22;2314;48.272;11.562;2023-10-19T00:15:38;6.80;99.90
4604;DHT22;2314;48.272;11.562;2023-10-19T00:18:07;6.80;99.90
4604;DHT22;2314;48.272;11.562;2023-10-19T00:20:49;6.70;99.90
4604;DHT22;2314;48.272;11.562;2023-10-19T00:23:23;6.80;99.90
4604;DHT22;2314;48.272;11.562;2023-10-19T00:25:57;6.70;99.90
4604;DHT22;2314;48.272;11.562;2023-10-19T00:28:24;6.80;99.90
4604;DHT22;2314;48.272;11.562;2023-10-19T00:30:53;6.80;99.90
4604;DHT22;2314;48.272;11.562;2023-10-19T00:33:26;6.90;99.90
4604;DHT22;2314;48.272;11.562;2023-10-19T00:35:55;7.00;99.90
4604;DHT22;2314;48.272;11.562;2023-10-19T00:38:26;7.00;99.90
4604;DHT22;2314;48.272;11.562;2023-10-19T00:40:53;7.10;99.90
4604;DHT22;2314;48.272;11.562;2023-10-19T00:43:28;7.20;99.90
4604;DHT22;2314;48.272;11.562;2023-10-19T00:45:58;7.20;99.90
4604;DHT22;2314;48.272;11.562;2023-10-19T00:48:28;7.20;99.90
4604;DHT22;2314;48.272;11.562;2023-10-19T00:50:59;7.30;99.90
4604;DHT22;2314;48.272;11.562;2023-10-19T00:53:35;7.20;99.90
4604;DHT22;2314;48.272;11.562;2023-10-19T00:56:07;7.20;99.90
4604;DHT22;2314;48.272;11.562;2023-10-19T00:58:36;7.20;99.90
4604;DHT22;2314;48.272;11.562;2023-10-19T01:01:06;7.20;99.90
4604;DHT22;2314;48.272;11.562;2023-10-19T01:03:35;7.20;99.90
4604;DHT22;2314;48.272;11.562;2023-10-19T01:06:06;7.20;99.90
4604;DHT22;2314;48.272;11.562;2023-10-19T01:08:37;7.10;99.90
4604;DHT22;2314;48.272;11.562;2023-10-19T01:11:09;7.10;99.90
4604;DHT22;2314;48.272;11.562;2023-10-19T01:13:37;7.10;99.90
4604;DHT22;2314;48.272;11.562;2023-10-19T01:16:12;7.10;99.90
4604;DHT22;2314;48.272;11.562;2023-10-19T01:18:46;7.20;99.90
4604;DHT22;2314;48.272;11.562;2023-10-19T01:21:17;7.20;99.90
4604;DHT22;2314;48.272;11.562;2023-10-19T01:23:48;7.30;99.90
4604;DHT22;2314;48.272;11.562;2023-10-19T01:26:15;7.30;99.90
4604;DHT22;2314;48.272;11.562;2023-10-19T01:28:48;7.40;99.90
4604;DHT22;2314;48.272;11.562;2023-10-19T01:31:18;7.30;99.90
4604;DHT22;2314;48.272;11.562;2023-10-19T01:33:57;7.40;99.90
4604;DHT22;2314;48.272;11.562;2023-10-19T01:36:27;7.30;99.90
4604;DHT22;2314;48.272;11.562;2023-10-19T01:38:59;7.30;99.90
4604;DHT22;2314;48.272;11.562;2023-10-19T01:41:27;7.30;99.90
4604;DHT22;2314;48.272;11.562;2023-10-19T01:43:56;7.20;99.90
4604;DHT22;2314;48.272;11.562;2023-10-19T01:46:30;7.10;99.90
4604;DHT22;2314;48.272;11.562;2023-10-19T01:48:59;7.10;99.90
4604;DHT22;2314;48.272;11.562;2023-10-19T01:51:28;7.10;99.90
4604;DHT22;2314;48.272;11.562;2023-10-19T01:53:59;7.00;99.90
4604;DHT22;2314;48.272;11.562;2023-10-19T01:56:26;7.00;99.90
4604;DHT22;2314;48.272;11.562;2023-10-19T01:58:54;7.00;99.90
4604;DHT22;2314;48.272;11.562;2023-10-19T02:01:20;7.10;99.90
4604;DHT22;2314;48.272;11.562;2023-10-19T02:03:54;7.10;99.90
4604;DHT22;2314;48.272;11.562;2023-10-19T02:06:24;7.10;99.90
4604;DHT22;2314;48.272;11.562;2023-10-19T02:08:55;7.20;99.90
4604;DHT22;2314;48.272;11.562;2023-10-19T02:11:28;7.20;99.90
4604;DHT22;2314;48.272;11.562;2023-10-19T02:13:55;7.20;99.90
4604;DHT22;2314;48.272;11.562;2023-10-19T02:16:25;7.30;99.90
4604;DHT22;2314;48.272;11.562;2023-10-19T02:18:55;7.30;99.90
4604;DHT22;2314;48.272;11.562;2023-10-19T02:21:21;7.30;99.90
4604;DHT22;2314;48.272;11.562;2023-10-19T02:23:48;7.30;99.90
4604;DHT22;2314;48.272;11.562;2023-10-19T02:26:16;7.30;99.90
4604;DHT22;2314;48.272;11.562;2023-10-19T02:28:46;7.30;99.90
4604;DHT22;2314;48.272;11.562;2023-10-19T02:31:13;7.30;99.90
4604;DHT22;2314;48.272;11.562;2023-10-19T02:33:44;7.30;99.90
4604;DHT22;2314;48.272;11.562;2023-10-19T02:36:12;7.40;99.90
4604;DHT22;2314;48.272;11.562;2023-10-19T02:38:41;7.40;99.90
4604;DHT22;2314;48.272;11.562;2023-10-19T02:41:10;7.40;99.90
4604;DHT22;2314;48.272;11.562;2023-10-19T02:43:37;7.40;99.90
4604;DHT22;2314;48.272;11.562;2023-10-19T02:46:05;7.50;99.90
4604;DHT22;2314;48.272;11.562;2023-10-19T02:48:32;7.50;99.90
4604;DHT22;2314;48.272;11.562;2023-10-19T02:50:58;7.50;99.90
4604;DHT22;2314;48.272;11.562;2023-10-19T02:53:32;7.50;99.90
4604;DHT22;2314;48.272;11.562;2023-10-19T02:55:59;7.50;99.90
4604;DHT22;2314;48.272;11.562;2023-10-19T02:58:26;7.50;99.90
4604;DHT22;2314;48.272;11.562;2023-10-19T03:00:53;7.50;99.90
4604;DHT22;2314;48.272;11.562;2023-10-19T03:03:23;7.50;99.90
4604;DHT22;2314;48.272;11.562;2023-10-19T03:05:49;7.50;99.90
4604;DHT22;2314;48.272;11.562;2023-10-19T03:08:17;7.50;99.90
4604;DHT22;2314;48.272;11.562;2023-10-19T03:10:44;7.40;99.90
4604;DHT22;2314;48.272;11.562;2023-10-19T03:13:12;7.40;99.90
4604;DHT22;2314;48.272;11.562;2023-10-19T03:15:40;7.40;99.90
4604;DHT22;2314;48.272;11.562;2023-10-19T03:18:08;7.40;99.90
4604;DHT22;2314;48.272;11.562;2023-10-19T03:20:37;7.40;99.90
4604;DHT22;2314;48.272;11.562;2023-10-19T03:23:06;7.40;99.90
4604;DHT22;2314;48.272;11.562;2023-10-19T03:25:36;7.30;99.90
4604;DHT22;2314;48.272;11.562;2023-10-19T03:28:43;7.30;99.90
4604;DHT22;2314;48.272;11.562;2023-10-19T03:31:10;7.40;99.90
4604;DHT22;2314;48.272;11.562;2023-10-19T03:33:43;7.40;99.90
4604;DHT22;2314;48.272;11.562;2023-10-19T03:36:15;7.40;99.90
4604;DHT22;2314;48.272;11.562;2023-10-19T03:38:42;7.40;99.90
4604;DHT22;2314;48.272;11.562;2023-10-19T03:41:11;7.40;99.90
4604;DHT22;2314;48.272;11.562;2023-10-19T03:43:39;7.40;99.90
4604;DHT22;2314;48.272;11.562;2023-10-19T03:46:06;7.40;99.90
4604;DHT22;2314;48.272;11.562;2023-10-19T03:48:45;7.40;99.90
4604;DHT22;2314;48.272;11.562;2023-10-19T03:51:12;7.30;99.90
4604;DHT22;2314;48.272;11.562;2023-10-19T03:53:41;7.30;99.90
4604;DHT22;2314;48.272;11.562;2023-10-19T03:56:19;7.30;99.90
4604;DHT22;2314;48.272;11.562;2023-10-19T03:58:47;7.30;99.90
4604;DHT22;2314;48.272;11.562;2023-10-19T04:01:16;7.30;99.90
4604;DHT22;2314;48.272;11.562;2023-10-19T04:03:45;7.30;99.90
4604;DHT22;2314;48.272;11.562;2023-10-19T04:06:13;7.30;99.90
4604;DHT22;2314;48.272;11.562;2023-10-19T04:08:42;7.40;99.90
4604;DHT22;2314;48.272;11.562;2023-10-19T04:11:13;7.50;99.90
4604;DHT22;2314;48.272;11.562;2023-10-19T04:13:48;7.50;99.90
4604;DHT22;2314;48.272;11.562;2023-10-19T04:16:19;7.50;99.90
4604;DHT22;2314;48.272;11.562;2023-10-19T04:18:47;7.50;99.90
4604;DHT22;2314;48.272;11.562;2023-10-19T04:21:15;7.60;99.90
4604;DHT22;2314;48.272;11.562;2023-10-19T04:23:43;7.60;99.90
4604;DHT22;2314;48.272;11.562;2023-10-19T04:26:12;7.60;99.90
4604;DHT22;2314;48.272;11.562;2023-10-19T04:28:44;7.60;99.90
4604;DHT22;2314;48.272;11.562;2023-10-19T04:31:17;7.70;99.90
4604;DHT22;2314;48.272;11.562;2023-10-19T04:33:45;7.70;99.90
4604;DHT22;2314;48.272;11.562;2023-10-19T04:36:16;7.70;99.90
4604;DHT22;2314;48.272;11.562;2023-10-19T04:38:48;7.80;99.90
4604;DHT22;2314;48.272;11.562;2023-10-19T04:41:15;7.80;99.90
4604;DHT22;2314;48.272;11.562;2023-10-19T04:43:42;7.80;99.90
4604;DHT22;2314;48.272;11.562;2023-10-19T04:46:15;7.90;99.90
4604;DHT22;2314;48.272;11.562;2023-10-19T04:48:44;7.90;99.90
4604;DHT22;2314;48.272;11.562;2023-10-19T04:51:11;7.90;99.90
4604;DHT22;2314;48.272;11.562;2023-10-19T04:53:38;8.00;99.90
4604;DHT22;2314;48.272;11.562;2023-10-19T04:56:07;8.00;99.90
4604;DHT22;2314;48.272;11.562;2023-10-19T04:58:35;8.00;99.90
4604;DHT22;2314;48.272;11.562;2023-10-19T05:01:03;8.00;99.90
4604;DHT22;2314;48.272;11.562;2023-10-19T05:03:31;8.00;99.90
4604;DHT22;2314;48.272;11.562;2023-10-19T05:05:58;8.00;99.90
4604;DHT22;2314;48.272;11.562;2023-10-19T05:08:25;8.00;99.90
4604;DHT22;2314;48.272;11.562;2023-10-19T05:10:54;8.00;99.90
4604;DHT22;2314;48.272;11.562;2023-10-19T05:13:23;8.00;99.90
4604;DHT22;2314;48.272;11.562;2023-10-19T05:15:52;8.00;99.90
4604;DHT22;2314;48.272;11.562;2023-10-19T05:18:19;8.00;99.90
4604;DHT22;2314;48.272;11.562;2023-10-19T05:20:47;7.90;99.90
4604;DHT22;2314;48.272;11.562;2023-10-19T05:23:14;7.90;99.90
4604;DHT22;2314;48.272;11.562;2023-10-19T05:25:41;7.90;99.90
4604;DHT22;2314;48.272;11.562;2023-10-19T05:28:08;7.90;99.90
4604;DHT22;2314;48.272;11.562;2023-10-19T05:30:37;7.80;99.90
4604;DHT22;2314;48.272;11.562;2023-10-19T05:33:04;7.80;99.90
4604;DHT22;2314;48.272;11.562;2023-10-19T05:35:31;7.80;99.90
4604;DHT22;2314;48.272;11.562;2023-10-19T05:38:03;7.70;99.90
4604;DHT22;2314;48.272;11.562;2023-10-19T05:40:31;7.70;99.90
4604;DHT22;2314;48.272;11.562;2023-10-19T05:42:59;7.70;99.90
4604;DHT22;2314;48.272;11.562;2023-10-19T05:45:27;7.70;99.90
4604;DHT22;2314;48.272;11.562;2023-10-19T05:47:56;7.70;99.90
4604;DHT22;2314;48.272;11.562;2023-10-19T05:50:23;7.70;99.90
4604;DHT22;2314;48.272;11.562;2023-10-19T05:52:50;7.80;99.90
4604;DHT22;2314;48.272;11.562;2023-10-19T05:55:18;7.80;99.90
4604;DHT22;2314;48.272;11.562;2023-10-19T05:57:47;7.70;99.90
4604;DHT22;2314;48.272;11.562;2023-10-19T06:00:15;7.70;99.90
4604;DHT22;2314;48.272;11.562;2023-10-19T06:02:46;7.70;99.90
4604;DHT22;2314;48.272;11.562;2023-10-19T06:05:17;7.70;99.90
4604;DHT22;2314;48.272;11.562;2023-10-19T06:07:45;7.60;99.90
4604;DHT22;2314;48.272;11.562;2023-10-19T06:10:14;7.60;99.90
4604;DHT22;2314;48.272;11.562;2023-10-19T06:12:43;7.60;99.90
4604;DHT22;2314;48.272;11.562;2023-10-19T06:15:11;7.50;99.90
4604;DHT22;2314;48.272;11.562;2023-10-19T06:17:39;7.50;99.90
4604;DHT22;2314;48.272;11.562;2023-10-19T06:20:07;7.50;99.90
4604;DHT22;2314;48.272;11.562;2023-10-19T06:22:46;7.50;99.90
4604;DHT22;2314;48.272;11.562;2023-10-19T06:25:16;7.50;99.90
4604;DHT22;2314;48.272;11.562;2023-10-19T06:27:44;7.50;99.90
4604;DHT22;2314;48.272;11.562;2023-10-19T06:30:12;7.50;99.90
4604;DHT22;2314;48.272;11.562;2023-10-19T06:32:47;7.40;99.90
4604;DHT22;2314;48.272;11.562;2023-10-19T06:35:16;7.40;99.90
4604;DHT22;2314;48.272;11.562;2023-10-19T06:37:43;7.40;99.90
4604;DHT22;2314;48.272;11.562;2023-10-19T06:40:13;7.40;99.90
4604;DHT22;2314;48.272;11.562;2023-10-19T06:42:42;7.40;99.90
4604;DHT22;2314;48.272;11.562;2023-10-19T06:45:11;7.50;99.90
4604;DHT22;2314;48.272;11.562;2023-10-19T06:47:40;7.60;99.90
4604;DHT22;2314;48.272;11.562;2023-10-19T06:50:08;7.70;99.90
4604;DHT22;2314;48.272;11.562;2023-10-19T06:52:36;7.90;99.90
4604;DHT22;2314;48.272;11.562;2023-10-19T06:55:04;8.00;99.90
4604;DHT22;2314;48.272;11.562;2023-10-19T06:57:40;8.20;99.90
4604;DHT22;2314;48.272;11.562;2023-10-19T07:00:09;8.30;99.90
4604;DHT22;2314;48.272;11.562;2023-10-19T07:02:40;8.40;99.90
4604;DHT22;2314;48.272;11.562;2023-10-19T07:05:08;8.50;99.90
4604;DHT22;2314;48.272;11.562;2023-10-19T07:07:38;8.70;99.90
4604;DHT22;2314;48.272;11.562;2023-10-19T07:10:07;8.80;99.90
4604;DHT22;2314;48.272;11.562;2023-10-19T07:12:35;9.00;99.90
4604;DHT22;2314;48.272;11.562;2023-10-19T07:15:05;9.30;99.90
4604;DHT22;2314;48.272;11.562;2023-10-19T07:17:33;9.50;99.90
4604;DHT22;2314;48.272;11.562;2023-10-19T07:20:04;9.70;99.90
4604;DHT22;2314;48.272;11.562;2023-10-19T07:22:33;9.80;99.90
4604;DHT22;2314;48.272;11.562;2023-10-19T07:25:04;9.90;99.90
4604;DHT22;2314;48.272;11.562;2023-10-19T07:27:31;10.10;99.90
4604;DHT22;2314;48.272;11.562;2023-10-19T07:29:59;10.20;99.90
4604;DHT22;2314;48.272;11.562;2023-10-19T07:32:28;10.40;99.90
4604;DHT22;2314;48.272;11.562;2023-10-19T07:34:57;10.50;99.90
4604;DHT22;2314;48.272;11.562;2023-10-19T07:37:24;10.70;99.90
4604;DHT22;2314;48.272;11.562;2023-10-19T07:39:53;10.80;99.90
4604;DHT22;2314;48.272;11.562;2023-10-19T07:42:22;10.90;99.90
4604;DHT22;2314;48.272;11.562;2023-10-19T07:44:49;10.90;99.90
4604;DHT22;2314;48.272;11.562;2023-10-19T07:47:16;11.00;99.90
4604;DHT22;2314;48.272;11.562;2023-10-19T07:49:45;11.00;99.90
4604;DHT22;2314;48.272;11.562;2023-10-19T07:52:13;11.10;99.90
4604;DHT22;2314;48.272;11.562;2023-10-19T07:54:40;11.20;99.90
4604;DHT22;2314;48.272;11.562;2023-10-19T07:57:07;11.30;99.90
4604;DHT22;2314;48.272;11.562;2023-10-19T07:59:38;11.40;99.90
4604;DHT22;2314;48.272;11.562;2023-10-19T08:02:05;11.50;99.90
4604;DHT22;2314;48.272;11.562;2023-10-19T08:04:34;11.60;99.90
4604;DHT22;2314;48.272;11.562;2023-10-19T08:07:03;11.70;99.90
4604;DHT22;2314;48.272;11.562;2023-10-19T08:09:30;11.70;99.90
4604;DHT22;2314;48.272;11.562;2023-10-19T08:12:00;11.80;99.90
4604;DHT22;2314;48.272;11.562;2023-10-19T08:14:31;12.00;99.90
4604;DHT22;2314;48.272;11.562;2023-10-19T08:16:58;12.20;99.90
4604;DHT22;2314;48.272;11.562;2023-10-19T08:19:25;12.40;99.90
4604;DHT22;2314;48.272;11.562;2023-10-19T08:21:56;12.60;99.90
4604;DHT22;2314;48.272;11.562;2023-10-19T08:24:25;12.70;99.90
4604;DHT22;2314;48.272;11.562;2023-10-19T08:26:54;12.90;99.90
4604;DHT22;2314;48.272;11.562;2023-10-19T08:29:21;12.90;99.90
4604;DHT22;2314;48.272;11.562;2023-10-19T08:31:49;13.10;99.90
4604;DHT22;2314;48.272;11.562;2023-10-19T08:34:16;13.20;99.90
4604;DHT22;2314;48.272;11.562;2023-10-19T08:36:45;13.30;99.90
4604;DHT22;2314;48.272;11.562;2023-10-19T08:39:14;13.40;99.90
4604;DHT22;2314;48.272;11.562;2023-10-19T08:41:44;13.60;99.90
4604;DHT22;2314;48.272;11.562;2023-10-19T08:44:13;13.70;99.90
4604;DHT22;2314;48.272;11.562;2023-10-19T08:46:42;13.90;99.90
4604;DHT22;2314;48.272;11.562;2023-10-19T08:49:10;14.10;99.90
4604;DHT22;2314;48.272;11.562;2023-10-19T08:51:38;14.30;99.90
4604;DHT22;2314;48.272;11.562;2023-10-19T08:54:06;14.40;99.90
4604;DHT22;2314;48.272;11.562;2023-10-19T08:56:36;14.40;99.90
4604;DHT22;2314;48.272;11.562;2023-10-19T08:59:04;14.40;99.90
4604;DHT22;2314;48.272;11.562;2023-10-19T09:01:32;14.30;99.90
4604;DHT22;2314;48.272;11.562;2023-10-19T09:04:00;14.30;99.90
4604;DHT22;2314;48.272;11.562;2023-10-19T09:06:28;14.20;99.90
4604;DHT22;2314;48.272;11.562;2023-10-19T09:08:55;14.30;99.90
4604;DHT22;2314;48.272;11.562;2023-10-19T09:11:24;14.20;99.90
4604;DHT22;2314;48.272;11.562;2023-10-19T09:13:52;14.30;99.90
4604;DHT22;2314;48.272;11.562;2023-10-19T09:16:21;14.30;99.90
4604;DHT22;2314;48.272;11.562;2023-10-19T09:18:50;14.20;99.90
4604;DHT22;2314;48.272;11.562;2023-10-19T09:21:19;14.10;99.90
4604;DHT22;2314;48.272;11.562;2023-10-19T09:23:54;13.90;99.90
4604;DHT22;2314;48.272;11.562;2023-10-19T09:26:23;13.80;99.90
4604;DHT22;2314;48.272;11.562;2023-10-19T09:28:52;13.80;99.90
4604;DHT22;2314;48.272;11.562;2023-10-19T09:31:21;13.80;99.90
4604;DHT22;2314;48.272;11.562;2023-10-19T09:33:50;13.70;99.90
4604;DHT22;2314;48.272;11.562;2023-10-19T09:36:18;13.60;99.90
4604;DHT22;2314;48.272;11.562;2023-10-19T09:38:50;13.50;99.90
4604;DHT22;2314;48.272;11.562;2023-10-19T09:41:19;13.30;99.90
4604;DHT22;2314;48.272;11.562;2023-10-19T09:43:49;13.30;99.90
4604;DHT22;2314;48.272;11.562;2023-10-19T09:46:23;13.20;99.90
4604;DHT22;2314;48.272;11.562;2023-10-19T09:48:55;13.30;99.90
4604;DHT22;2314;48.272;11.562;2023-10-19T09:51:23;13.30;99.90
4604;DHT22;2314;48.272;11.562;2023-10-19T09:54:02;13.20;99.90
4604;DHT22;2314;48.272;11.562;2023-10-19T09:56:36;13.20;99.90
4604;DHT22;2314;48.272;11.562;2023-10-19T09:59:13;13.30;99.90
4604;DHT22;2314;48.272;11.562;2023-10-19T10:02:05;13.30;99.90
4604;DHT22;2314;48.272;11.562;2023-10-19T10:04:34;13.30;99.90
4604;DHT22;2314;48.272;11.562;2023-10-19T10:07:02;13.50;99.90
4604;DHT22;2314;48.272;11.562;2023-10-19T10:09:35;13.70;99.90
4604;DHT22;2314;48.272;11.562;2023-10-19T10:12:19;14.00;99.90
4604;DHT22;2314;48.272;11.562;2023-10-19T10:14:58;14.40;99.90
4604;DHT22;2314;48.272;11.562;2023-10-19T10:17:30;14.60;99.90
4604;DHT22;2314;48.272;11.562;2023-10-19T10:20:30;14.70;99.90
4604;DHT22;2314;48.272;11.562;2023-10-19T10:23:23;14.90;99.90
4604;DHT22;2314;48.272;11.562;2023-10-19T10:25:52;14.90;99.90
4604;DHT22;2314;48.272;11.562;2023-10-19T10:28:20;15.00;99.90
4604;DHT22;2314;48.272;11.562;2023-10-19T10:31:18;15.20;99.90
4604;DHT22;2314;48.272;11.562;2023-10-19T10:33:49;15.20;99.90
4604;DHT22;2314;48.272;11.562;2023-10-19T10:36:20;15.40;99.90
4604;DHT22;2314;48.272;11.562;2023-10-19T10:38:49;15.50;99.90
4604;DHT22;2314;48.272;11.562;2023-10-19T10:41:20;15.60;99.90
4604;DHT22;2314;48.272;11.562;2023-10-19T10:43:49;15.70;99.90
4604;DHT22;2314;48.272;11.562;2023-10-19T10:46:18;15.80;99.90
4604;DHT22;2314;48.272;11.562;2023-10-19T10:48:48;15.90;99.90
4604;DHT22;2314;48.272;11.562;2023-10-19T10:51:16;16.00;99.90
4604;DHT22;2314;48.272;11.562;2023-10-19T10:53:46;16.00;99.90
4604;DHT22;2314;48.272;11.562;2023-10-19T10:56:14;15.90;99.90
4604;DHT22;2314;48.272;11.562;2023-10-19T10:58:43;15.90;99.90
4604;DHT22;2314;48.272;11.562;2023-10-19T11:01:10;16.00;99.90
4604;DHT22;2314;48.272;11.562;2023-10-19T11:03:38;16.10;99.90
4604;DHT22;2314;48.272;11.562;2023-10-19T11:06:07;16.30;99.90
4604;DHT22;2314;48.272;11.562;2023-10-19T11:08:35;16.30;99.90
4604;DHT22;2314;48.272;11.562;2023-10-19T11:11:05;16.40;99.90
4604;DHT22;2314;48.272;11.562;2023-10-19T11:13:37;16.40;99.90
4604;DHT22;2314;48.272;11.562;2023-10-19T11:16:06;16.50;99.90
4604;DHT22;2314;48.272;11.562;2023-10-19T11:18:36;16.60;99.90
4604;DHT22;2314;48.272;11.562;2023-10-19T11:21:08;16.50;99.90
4604;DHT22;2314;48.272;11.562;2023-10-19T11:23:39;16.30;99.90
4604;DHT22;2314;48.272;11.562;2023-10-19T11:26:08;16.30;99.90
4604;DHT22;2314;48.272;11.562;2023-10-19T11:28:37;16.20;99.90
4604;DHT22;2314;48.272;11.562;2023-10-19T11:31:17;16.10;99.90
4604;DHT22;2314;48.272;11.562;2023-10-19T11:33:45;16.20;99.90
4604;DHT22;2314;48.272;11.562;2023-10-19T11:36:16;16.10;99.90
4604;DHT22;2314;48.272;11.562;2023-10-19T11:38:45;16.00;99.90
4604;DHT22;2314;48.272;11.562;2023-10-19T11:41:14;15.90;99.90
4604;DHT22;2314;48.272;11.562;2023-10-19T11:43:44;15.80;99.90
4604;DHT22;2314;48.272;11.562;2023-10-19T11:46:12;15.70;99.90
4604;DHT22;2314;48.272;11.562;2023-10-19T11:48:40;15.60;99.90
4604;DHT22;2314;48.272;11.562;2023-10-19T11:51:08;15.40;99.90
4604;DHT22;2314;48.272;11.562;2023-10-19T11:53:38;15.40;99.90
4604;DHT22;2314;48.272;11.562;2023-10-19T11:56:07;15.40;99.90
4604;DHT22;2314;48.272;11.562;2023-10-19T11:58:37;15.50;99.90
4604;DHT22;2314;48.272;11.562;2023-10-19T12:01:06;15.70;99.90
4604;DHT22;2314;48.272;11.562;2023-10-19T12:03:37;15.70;99.90
4604;DHT22;2314;48.272;11.562;2023-10-19T12:06:06;15.80;99.90
4604;DHT22;2314;48.272;11.562;2023-10-19T12:08:33;15.90;99.90
4604;DHT22;2314;48.272;11.562;2023-10-19T12:11:03;15.90;99.90
4604;DHT22;2314;48.272;11.562;2023-10-19T12:13:33;15.80;99.90
4604;DHT22;2314;48.272;11.562;2023-10-19T12:16:00;15.80;99.90
4604;DHT22;2314;48.272;11.562;2023-10-19T12:18:30;15.90;99.90
4604;DHT22;2314;48.272;11.562;2023-10-19T12:20:57;16.10;99.90
4604;DHT22;2314;48.272;11.562;2023-10-19T12:23:25;16.30;99.90
4604;DHT22;2314;48.272;11.562;2023-10-19T12:25:52;16.40;99.90
4604;DHT22;2314;48.272;11.562;2023-10-19T12:28:21;16.50;99.90
4604;DHT22;2314;48.272;11.562;2023-10-19T12:30:50;16.50;99.90
4604;DHT22;2314;48.272;11.562;2023-10-19T12:33:17;16.60;99.90
4604;DHT22;2314;48.272;11.562;2023-10-19T12:35:45;16.60;99.90
4604;DHT22;2314;48.272;11.562;2023-10-19T12:38:15;16.70;99.90
4604;DHT22;2314;48.272;11.562;2023-10-19T12:40:43;16.80;99.90
4604;DHT22;2314;48.272;11.562;2023-10-19T12:43:12;16.90;99.90
4604;DHT22;2314;48.272;11.562;2023-10-19T12:45:41;17.00;99.90
4604;DHT22;2314;48.272;11.562;2023-10-19T12:48:09;17.10;99.90
4604;DHT22;2314;48.272;11.562;2023-10-19T12:50:37;17.20;99.90
4604;DHT22;2314;48.272;11.562;2023-10-19T12:53:07;17.50;99.90
4604;DHT22;2314;48.272;11.562;2023-10-19T12:55:34;17.50;99.90
4604;DHT22;2314;48.272;11.562;2023-10-19T12:58:03;17.60;99.90
4604;DHT22;2314;48.272;11.562;2023-10-19T13:00:35;17.70;99.90
4604;DHT22;2314;48.272;11.562;2023-10-19T13:03:11;17.90;99.90
4604;DHT22;2314;48.272;11.562;2023-10-19T13:05:43;17.90;99.90
4604;DHT22;2314;48.272;11.562;2023-10-19T13:08:11;17.90;99.90
4604;DHT22;2314;48.272;11.562;2023-10-19T13:10:41;17.80;99.90
4604;DHT22;2314;48.272;11.562;2023-10-19T13:13:10;17.80;99.90
4604;DHT22;2314;48.272;11.562;2023-10-19T13:15:39;17.70;99.90
4604;DHT22;2314;48.272;11.562;2023-10-19T13:18:08;17.80;99.90
4604;DHT22;2314;48.272;11.562;2023-10-19T13:20:38;17.90;99.90
4604;DHT22;2314;48.272;11.562;2023-10-19T13:23:09;17.80;99.90
4604;DHT22;2314;48.272;11.562;2023-10-19T13:25:38;17.60;99.90
4604;DHT22;2314;48.272;11.562;2023-10-19T13:28:08;17.60;99.90
4604;DHT22;2314;48.272;11.562;2023-10-19T13:30:39;17.60;99.90
4604;DHT22;2314;48.272;11.562;2023-10-19T13:33:07;17.60;99.90
4604;DHT22;2314;48.272;11.562;2023-10-19T13:35:37;17.60;99.90
4604;DHT22;2314;48.272;11.562;2023-10-19T13:38:05;17.70;99.90
4604;DHT22;2314;48.272;11.562;2023-10-19T13:40:33;17.70;99.90
4604;DHT22;2314;48.272;11.562;2023-10-19T13:43:01;17.70;99.90
4604;DHT22;2314;48.272;11.562;2023-10-19T13:45:32;17.60;99.90
4604;DHT22;2314;48.272;11.562;2023-10-19T13:48:00;17.50;99.90
4604;DHT22;2314;48.272;11.562;2023-10-19T13:50:28;17.40;99.90
4604;DHT22;2314;48.272;11.562;2023-10-19T13:52:57;17.30;99.90
4604;DHT22;2314;48.272;11.562;2023-10-19T13:55:26;17.20;99.90
4604;DHT22;2314;48.272;11.562;2023-10-19T13:57:54;17.00;99.90
4604;DHT22;2314;48.272;11.562;2023-10-19T14:00:23;16.80;99.90
4604;DHT22;2314;48.272;11.562;2023-10-19T14:02:56;16.70;99.90
4604;DHT22;2314;48.272;11.562;2023-10-19T14:05:24;16.50;99.90
4604;DHT22;2314;48.272;11.562;2023-10-19T14:07:51;16.40;99.90
4604;DHT22;2314;48.272;11.562;2023-10-19T14:10:21;16.30;99.90
4604;DHT22;2314;48.272;11.562;2023-10-19T14:12:50;16.20;99.90
4604;DHT22;2314;48.272;11.562;2023-10-19T14:15:18;16.10;99.90
4604;DHT22;2314;48.272;11.562;2023-10-19T14:17:47;16.00;99.90
4604;DHT22;2314;48.272;11.562;2023-10-19T14:20:16;16.00;99.90
4604;DHT22;2314;48.272;11.562;2023-10-19T14:22:45;15.90;99.90
4604;DHT22;2314;48.272;11.562;2023-10-19T14:25:14;15.80;99.90
4604;DHT22;2314;48.272;11.562;2023-10-19T14:27:44;15.80;99.90
4604;DHT22;2314;48.272;11.562;2023-10-19T14:30:13;15.80;99.90
4604;DHT22;2314;48.272;11.562;2023-10-19T14:32:42;15.60;99.90
4604;DHT22;2314;48.272;11.562;2023-10-19T14:35:10;15.40;99.90
4604;DHT22;2314;48.272;11.562;2023-10-19T14:37:39;15.30;99.90
4604;DHT22;2314;48.272;11.562;2023-10-19T14:40:09;15.10;99.90
4604;DHT22;2314;48.272;11.562;2023-10-19T14:42:37;14.90;99.90
4604;DHT22;2314;48.272;11.562;2023-10-19T14:45:09;14.70;99.90
4604;DHT22;2314;48.272;11.562;2023-10-19T14:47:37;14.60;99.90
4604;DHT22;2314;48.272;11.562;2023-10-19T14:50:09;14.60;99.90
4604;DHT22;2314;48.272;11.562;2023-10-19T14:52:39;14.60;99.90
4604;DHT22;2314;48.272;11.562;2023-10-19T14:55:07;14.60;99.90
4604;DHT22;2314;48.272;11.562;2023-10-19T14:57:35;14.60;99.90
4604;DHT22;2314;48.272;11.562;2023-10-19T15:00:05;14.60;99.90
4604;DHT22;2314;48.272;11.562;2023-10-19T15:02:41;14.60;99.90
4604;DHT22;2314;48.272;11.562;2023-10-19T15:05:10;14.60;99.90
4604;DHT22;2314;48.272;11.562;2023-10-19T15:07:40;14.60;99.90
4604;DHT22;2314;48.272;11.562;2023-10-19T15:10:10;14.60;99.90
4604;DHT22;2314;48.272;11.562;2023-10-19T15:12:38;14.50;99.90
4604;DHT22;2314;48.272;11.562;2023-10-19T15:15:08;14.40;99.90
4604;DHT22;2314;48.272;11.562;2023-10-19T15:17:37;14.30;99.90
4604;DHT22;2314;48.272;11.562;2023-10-19T15:20:05;14.30;99.90
4604;DHT22;2314;48.272;11.562;2023-10-19T15:22:34;14.20;99.90
4604;DHT22;2314;48.272;11.562;2023-10-19T15:25:01;14.20;99.90
4604;DHT22;2314;48.272;11.562;2023-10-19T15:27:29;14.20;99.90
4604;DHT22;2314;48.272;11.562;2023-10-19T15:29:56;14.10;99.90
4604;DHT22;2314;48.272;11.562;2023-10-19T15:32:25;14.10;99.90
4604;DHT22;2314;48.272;11.562;2023-10-19T15:34:55;14.10;99.90
4604;DHT22;2314;48.272;11.562;2023-10-19T15:37:23;14.10;99.90
4604;DHT22;2314;48.272;11.562;2023-10-19T15:39:50;14.10;99.90
4604;DHT22;2314;48.272;11.562;2023-10-19T15:42:18;14.00;99.90
4604;DHT22;2314;48.272;11.562;2023-10-19T15:44:47;14.00;99.90
4604;DHT22;2314;48.272;11.562;2023-10-19T15:47:15;14.00;99.90
4604;DHT22;2314;48.272;11.562;2023-10-19T15:49:48;13.90;99.90
4604;DHT22;2314;48.272;11.562;2023-10-19T15:52:18;13.90;99.90
4604;DHT22;2314;48.272;11.562;2023-10-19T15:54:46;13.90;99.90
4604;DHT22;2314;48.272;11.562;2023-10-19T15:57:13;13.80;99.90
4604;DHT22;2314;48.272;11.562;2023-10-19T15:59:41;13.80;99.90
4604;DHT22;2314;48.272;11.562;2023-10-19T16:02:08;13.70;99.90
4604;DHT22;2314;48.272;11.562;2023-10-19T16:04:35;13.80;99.90
4604;DHT22;2314;48.272;11.562;2023-10-19T16:07:04;13.70;99.90